Time;durP1;ratioP1;P1;durP2;ratioP2;P2;SDS_P1;SDS_P2;PMS_P1;PMS_P2;Temp;Humidity;BMP_temperature;BMP_pressure;BME280_temperature;BME280_humidity;BME280_pressure;Samples;Min_cycle;Max_cycle;Signal;HPM_P1;HPM_P2
2024/02/14 00:02:25;;;;;;;5.80;5.23;;;10.10;99.90;;;;;;4993440;28;20428;-63
2024/02/14 00:04:53;;;;;;;5.23;4.80;;;10.00;99.90;;;;;;4994365;28;20430;-71
2024/02/14 00:07:20;;;;;;;5.93;5.33;;;10.00;99.90;;;;;;4993993;28;20417;-70
2024/02/14 00:09:46;;;;;;;5.03;4.50;;;10.00;99.90;;;;;;4994066;28;20414;-70
2024/02/14 00:12:11;;;;;;;6.50;5.43;;;10.00;99.90;;;;;;4994144;28;20439;-70
2024/02/14 00:14:38;;;;;;;6.53;4.83;;;10.00;99.90;;;;;;4975695;28;20560;-70
2024/02/14 00:17:05;;;;;;;5.27;4.87;;;10.10;99.90;;;;;;4976404;28;20243;-70
2024/02/14 00:19:31;;;;;;;4.80;4.40;;;10.10;99.90;;;;;;4993471;28;20938;-72
2024/02/14 00:21:57;;;;;;;5.00;4.60;;;10.20;99.90;;;;;;4993838;28;20430;-71
2024/02/14 00:24:23;;;;;;;4.53;4.13;;;10.20;99.90;;;;;;4993931;28;20446;-73
2024/02/14 00:26:50;;;;;;;5.33;4.47;;;10.30;99.90;;;;;;4976692;28;20449;-73
2024/02/14 00:29:16;;;;;;;4.97;4.20;;;10.40;99.90;;;;;;4993910;28;20438;-73
2024/02/14 00:31:44;;;;;;;5.13;4.00;;;10.30;99.90;;;;;;4993001;28;20430;-73
2024/02/14 00:34:10;;;;;;;4.00;3.70;;;10.20;99.90;;;;;;4994385;28;20462;-72
2024/02/14 00:36:36;;;;;;;4.40;4.00;;;10.30;99.90;;;;;;4975151;28;20467;-72
2024/02/14 00:39:02;;;;;;;5.90;3.80;;;10.30;99.90;;;;;;4993641;28;20458;-73
2024/02/14 00:41:29;;;;;;;4.67;3.20;;;10.40;99.90;;;;;;4992437;28;20675;-65
2024/02/14 00:43:58;;;;;;;4.10;3.80;;;10.40;99.90;;;;;;4993882;28;20418;-68
2024/02/14 00:46:24;;;;;;;5.03;4.07;;;10.30;99.90;;;;;;4992173;28;20431;-71
2024/02/14 00:48:50;;;;;;;4.10;3.70;;;10.40;99.90;;;;;;4992139;28;22416;-71
2024/02/14 00:51:16;;;;;;;4.40;4.00;;;10.50;99.90;;;;;;4993250;28;20978;-72
2024/02/14 00:53:41;;;;;;;4.57;4.27;;;10.40;99.90;;;;;;4974606;28;20228;-72
2024/02/14 00:56:07;;;;;;;7.37;3.60;;;10.50;99.90;;;;;;4992886;28;20254;-72
2024/02/14 00:58:33;;;;;;;3.40;3.20;;;10.50;99.90;;;;;;4992739;28;20164;-72
2024/02/14 01:00:59;;;;;;;4.03;3.53;;;10.40;99.90;;;;;;4993226;28;20788;-72
2024/02/14 01:03:25;;;;;;;3.70;3.50;;;10.50;99.90;;;;;;4992876;28;20215;-72
2024/02/14 01:05:50;;;;;;;3.73;3.47;;;10.40;99.90;;;;;;4993105;28;20198;-72
2024/02/14 01:08:17;;;;;;;5.13;3.97;;;10.50;99.90;;;;;;4993056;28;20182;-72
2024/02/14 01:10:42;;;;;;;3.57;3.27;;;10.50;99.90;;;;;;4991904;28;20540;-72
2024/02/14 01:13:08;;;;;;;5.77;4.03;;;10.50;99.90;;;;;;4992003;28;20446;-72
2024/02/14 01:15:34;;;;;;;3.93;3.60;;;10.40;99.90;;;;;;4992513;28;20464;-71
2024/02/14 01:18:00;;;;;;;3.30;3.10;;;10.50;99.90;;;;;;4992468;28;20724;-72
2024/02/14 01:20:26;;;;;;;3.87;3.47;;;10.50;99.90;;;;;;4992639;28;20447;-72
2024/02/14 01:22:52;;;;;;;3.47;3.17;;;10.50;99.90;;;;;;4991855;28;20178;-71
2024/02/14 01:25:18;;;;;;;3.47;3.17;;;10.60;99.90;;;;;;4993498;28;20513;-71
2024/02/14 01:27:44;;;;;;;3.60;3.40;;;10.60;99.90;;;;;;4991426;28;20553;-71
2024/02/14 01:30:10;;;;;;;3.70;3.40;;;10.30;99.90;;;;;;4992044;28;20270;-72
2024/02/14 01:32:37;;;;;;;3.20;3.00;;;10.40;99.90;;;;;;4992886;28;20422;-71
2024/02/14 01:35:03;;;;;;;3.57;3.27;;;10.30;99.90;;;;;;4992430;28;20491;-72
2024/02/14 01:37:30;;;;;;;4.67;4.33;;;10.30;99.90;;;;;;4992003;28;20422;-63
2024/02/14 01:39:56;;;;;;;3.70;3.40;;;10.40;99.90;;;;;;4991744;28;20506;-72
2024/02/14 01:42:21;;;;;;;4.33;3.97;;;10.20;99.90;;;;;;4993191;28;20498;-73
2024/02/14 01:44:48;;;;;;;4.23;3.80;;;10.20;99.90;;;;;;4991342;28;20194;-73
2024/02/14 01:47:13;;;;;;;5.17;4.40;;;10.20;99.90;;;;;;4992048;28;20622;-71
2024/02/14 01:49:44;;;;;;;4.27;3.97;;;10.30;99.90;;;;;;4992496;28;20443;-72
2024/02/14 01:52:10;;;;;;;4.20;3.90;;;10.30;99.90;;;;;;4992381;28;20185;-72
2024/02/14 01:54:36;;;;;;;4.50;4.10;;;10.30;99.90;;;;;;4991615;28;20493;-71
2024/02/14 01:57:03;;;;;;;4.53;4.13;;;10.20;99.90;;;;;;4991996;28;20427;-71
2024/02/14 01:59:29;;;;;;;4.40;4.00;;;10.10;99.90;;;;;;4992099;28;20480;-71
2024/02/14 02:01:55;;;;;;;3.60;3.40;;;10.10;99.90;;;;;;4991674;28;20476;-71
2024/02/14 02:04:21;;;;;;;3.60;3.40;;;10.00;99.90;;;;;;4991980;28;20939;-71
2024/02/14 02:06:47;;;;;;;3.70;3.40;;;10.00;99.90;;;;;;4991868;28;20403;-71
2024/02/14 02:09:14;;;;;;;3.80;3.50;;;9.90;99.90;;;;;;4991985;28;20797;-72
2024/02/14 02:11:57;;;;;;;3.47;3.27;;;9.90;99.90;;;;;;4991035;28;20434;-71
2024/02/14 02:14:23;;;;;;;3.83;3.53;;;10.00;99.90;;;;;;4974576;28;20473;-69
2024/02/14 02:16:49;;;;;;;3.53;3.30;;;10.00;99.90;;;;;;4991372;28;20436;-72
2024/02/14 02:19:15;;;;;;;3.77;3.37;;;10.00;99.90;;;;;;4991743;28;20193;-72
2024/02/14 02:21:46;;;;;;;3.37;3.17;;;10.10;99.90;;;;;;4989463;28;20220;-63
2024/02/14 02:24:11;;;;;;;3.00;2.90;;;10.10;99.90;;;;;;4989606;28;20444;-72
2024/02/14 02:26:37;;;;;;;3.47;3.27;;;10.10;99.90;;;;;;4990876;28;20440;-71
2024/02/14 02:29:05;;;;;;;3.30;3.10;;;10.20;99.90;;;;;;4992047;28;20823;-72
2024/02/14 02:31:31;;;;;;;3.33;3.13;;;10.10;99.90;;;;;;4992506;28;20434;-72
2024/02/14 02:33:57;;;;;;;3.80;3.50;;;10.10;99.90;;;;;;4990821;28;20470;-72
2024/02/14 02:36:24;;;;;;;3.30;3.03;;;10.10;99.90;;;;;;4974644;28;20440;-70
2024/02/14 02:38:50;;;;;;;3.57;3.30;;;10.20;99.90;;;;;;4990378;28;20429;-72
2024/02/14 02:41:16;;;;;;;3.77;3.57;;;10.30;99.90;;;;;;4994095;28;20941;-72
2024/02/14 02:43:42;;;;;;;4.03;3.73;;;10.40;99.90;;;;;;4994705;28;20554;-72
2024/02/14 02:46:09;;;;;;;4.00;3.13;;;10.30;99.90;;;;;;4995224;28;20584;-71
2024/02/14 02:48:35;;;;;;;3.47;3.27;;;10.30;99.90;;;;;;4994574;28;20277;-64
2024/02/14 02:51:01;;;;;;;3.50;3.40;;;10.20;99.90;;;;;;4995455;28;20436;-67
2024/02/14 02:53:27;;;;;;;3.33;3.13;;;10.20;99.90;;;;;;4995535;28;20431;-72
2024/02/14 02:55:54;;;;;;;3.40;3.10;;;10.20;99.90;;;;;;4977099;28;20468;-72
2024/02/14 02:58:21;;;;;;;3.33;3.03;;;10.20;99.90;;;;;;4994592;28;20211;-71
2024/02/14 03:00:49;;;;;;;3.17;2.97;;;10.20;99.90;;;;;;4995091;28;20770;-71
2024/02/14 03:03:15;;;;;;;3.67;3.30;;;10.30;99.90;;;;;;4995126;28;20423;-70
2024/02/14 03:05:44;;;;;;;4.67;3.50;;;10.30;99.90;;;;;;4994642;28;20430;-71
2024/02/14 03:08:13;;;;;;;3.83;3.53;;;10.40;99.90;;;;;;4995570;28;20466;-72
2024/02/14 03:10:40;;;;;;;3.07;2.97;;;10.50;99.90;;;;;;4994072;28;20489;-71
2024/02/14 03:13:09;;;;;;;3.20;3.10;;;10.50;99.90;;;;;;4995294;28;20835;-72
2024/02/14 03:15:35;;;;;;;3.40;3.20;;;10.50;99.90;;;;;;4995236;28;20467;-64
2024/02/14 03:18:01;;;;;;;3.50;3.20;;;10.50;99.90;;;;;;4994268;28;21002;-71
2024/02/14 03:20:29;;;;;;;3.47;3.23;;;10.40;99.90;;;;;;4995119;28;20437;-72
2024/02/14 03:22:54;;;;;;;3.27;3.07;;;10.30;99.90;;;;;;4994709;28;20270;-72
2024/02/14 03:25:20;;;;;;;3.43;3.20;;;10.40;99.90;;;;;;4994592;28;20509;-72
2024/02/14 03:27:49;;;;;;;3.10;2.93;;;10.30;99.90;;;;;;4994166;28;20588;-71
2024/02/14 03:30:16;;;;;;;3.73;3.43;;;10.40;99.90;;;;;;4995132;28;20785;-72
2024/02/14 03:32:45;;;;;;;3.37;3.20;;;10.40;99.90;;;;;;4994383;28;20519;-71
2024/02/14 03:35:13;;;;;;;2.83;2.73;;;10.40;99.90;;;;;;4993134;28;20616;-71
2024/02/14 03:37:43;;;;;;;3.57;3.27;;;10.50;99.90;;;;;;4993345;28;20843;-64
2024/02/14 03:40:09;;;;;;;3.17;2.97;;;10.50;99.90;;;;;;4994151;28;20437;-72
2024/02/14 03:42:36;;;;;;;3.60;3.50;;;10.50;99.90;;;;;;4994186;28;20433;-62
2024/02/14 03:45:05;;;;;;;3.77;3.47;;;10.50;99.90;;;;;;4993975;28;20438;-72
2024/02/14 03:47:34;;;;;;;3.63;3.43;;;10.50;99.90;;;;;;4995043;28;20434;-72
2024/02/14 03:50:02;;;;;;;3.70;3.40;;;10.50;99.90;;;;;;4975764;28;20438;-71
2024/02/14 03:52:28;;;;;;;3.70;3.50;;;10.50;99.90;;;;;;4993991;28;20462;-72
2024/02/14 03:54:53;;;;;;;3.40;3.20;;;10.50;99.90;;;;;;4993328;28;20457;-72
2024/02/14 03:57:19;;;;;;;3.30;3.20;;;10.40;99.90;;;;;;4994811;28;20911;-72
2024/02/14 03:59:46;;;;;;;3.13;3.03;;;10.40;99.90;;;;;;4993691;28;20191;-72
2024/02/14 04:02:11;;;;;;;3.33;3.13;;;10.50;99.90;;;;;;4994075;28;20195;-72
2024/02/14 04:04:39;;;;;;;3.20;3.10;;;10.50;99.90;;;;;;4994484;28;20438;-64
2024/02/14 04:07:05;;;;;;;3.97;3.77;;;10.70;99.90;;;;;;4993995;28;20196;-69
2024/02/14 04:09:33;;;;;;;3.17;3.07;;;10.70;99.90;;;;;;4993887;28;20909;-72
2024/02/14 04:11:59;;;;;;;3.07;2.97;;;10.70;99.90;;;;;;4993314;28;20422;-71
2024/02/14 04:14:25;;;;;;;3.20;3.00;;;10.60;99.90;;;;;;4993589;28;20815;-71
2024/02/14 04:16:51;;;;;;;3.63;3.37;;;10.50;99.90;;;;;;4992886;28;20182;-71
2024/02/14 04:19:17;;;;;;;3.90;3.60;;;10.50;99.90;;;;;;4994344;28;20427;-72
2024/02/14 04:21:43;;;;;;;3.73;3.50;;;10.60;99.90;;;;;;4992894;28;20186;-70
2024/02/14 04:24:09;;;;;;;3.60;3.50;;;10.60;99.90;;;;;;4993570;28;20474;-72
2024/02/14 04:26:35;;;;;;;3.80;3.60;;;10.60;99.90;;;;;;4994287;28;20918;-72
2024/02/14 04:29:01;;;;;;;4.43;4.23;;;10.60;99.90;;;;;;4992698;28;20182;-72
2024/02/14 04:31:29;;;;;;;3.77;3.57;;;10.60;99.90;;;;;;4976476;28;20186;-72
2024/02/14 04:33:55;;;;;;;3.40;3.30;;;10.50;99.90;;;;;;4992418;28;20520;-72
2024/02/14 04:36:24;;;;;;;4.00;3.60;;;10.50;99.90;;;;;;4993798;28;20428;-67
2024/02/14 04:38:51;;;;;;;3.70;3.50;;;10.60;99.90;;;;;;4993215;28;20973;-71
2024/02/14 04:41:17;;;;;;;4.00;3.70;;;10.60;99.90;;;;;;4993256;28;20436;-71
2024/02/14 04:43:43;;;;;;;3.80;3.60;;;10.70;99.90;;;;;;4992797;28;20426;-63
2024/02/14 04:46:09;;;;;;;3.33;3.10;;;10.60;99.90;;;;;;4993493;28;20568;-72
2024/02/14 04:48:35;;;;;;;3.80;3.60;;;10.60;99.90;;;;;;4993153;28;20533;-72
2024/02/14 04:51:01;;;;;;;4.50;4.27;;;10.70;99.90;;;;;;4993377;28;20183;-72
2024/02/14 04:53:27;;;;;;;4.67;4.27;;;10.70;99.90;;;;;;4992814;28;20541;-72
2024/02/14 04:55:53;;;;;;;3.77;3.57;;;10.60;99.90;;;;;;4991849;28;20465;-72
2024/02/14 04:58:20;;;;;;;5.90;3.80;;;10.60;99.90;;;;;;4993537;28;20648;-71
2024/02/14 05:00:45;;;;;;;3.90;3.70;;;10.60;99.90;;;;;;4992161;28;20577;-71
2024/02/14 05:03:12;;;;;;;3.60;3.40;;;10.70;99.90;;;;;;4991885;28;20511;-71
2024/02/14 05:05:38;;;;;;;3.47;3.20;;;10.60;99.90;;;;;;4993299;28;20226;-71
2024/02/14 05:08:04;;;;;;;4.10;3.80;;;10.70;99.90;;;;;;4992507;28;20956;-71
2024/02/14 05:10:30;;;;;;;3.70;3.50;;;10.80;99.90;;;;;;4992903;28;20194;-71
2024/02/14 05:13:01;;;;;;;4.30;3.90;;;10.80;99.90;;;;;;4992368;28;20470;-72
2024/02/14 05:15:26;;;;;;;4.60;4.10;;;10.80;99.90;;;;;;4975624;28;20465;-73
2024/02/14 05:17:52;;;;;;;4.33;4.03;;;10.80;99.90;;;;;;4991328;28;20472;-71
2024/02/14 05:20:18;;;;;;;5.33;4.90;;;10.70;99.90;;;;;;4992914;28;20541;-71
2024/02/14 05:22:44;;;;;;;7.20;6.80;;;10.70;99.90;;;;;;4992648;28;20183;-64
2024/02/14 05:25:10;;;;;;;4.90;4.50;;;10.70;99.90;;;;;;4992603;28;20452;-71
2024/02/14 05:27:39;;;;;;;4.50;4.03;;;10.80;99.90;;;;;;4993328;28;20410;-69
2024/02/14 05:30:05;;;;;;;5.87;5.50;;;10.80;99.90;;;;;;4974053;28;20439;-71
2024/02/14 05:32:32;;;;;;;6.23;5.73;;;10.80;99.90;;;;;;4992454;28;20489;-71
2024/02/14 05:34:58;;;;;;;5.80;5.40;;;10.80;99.90;;;;;;4991755;28;20482;-71
2024/02/14 05:37:24;;;;;;;4.33;4.03;;;10.80;99.90;;;;;;4993296;28;20419;-71
2024/02/14 05:39:50;;;;;;;3.83;3.53;;;10.80;99.90;;;;;;4991767;28;20781;-71
2024/02/14 05:42:16;;;;;;;4.77;4.33;;;10.90;99.90;;;;;;4991999;28;20219;-70
2024/02/14 05:44:45;;;;;;;3.70;3.27;;;10.90;99.90;;;;;;4992774;28;20460;-64
2024/02/14 05:47:11;;;;;;;5.40;4.90;;;10.90;99.90;;;;;;4991621;28;20281;-70
2024/02/14 05:49:40;;;;;;;4.90;4.60;;;11.00;99.90;;;;;;4991604;28;20551;-71
2024/02/14 05:52:09;;;;;;;4.23;3.93;;;11.00;99.90;;;;;;4991374;28;20403;-72
2024/02/14 05:54:35;;;;;;;8.17;7.67;;;11.00;99.90;;;;;;4992609;28;20470;-71
2024/02/14 05:57:04;;;;;;;5.07;4.73;;;11.10;99.90;;;;;;4990630;28;20437;-70
2024/02/14 05:59:30;;;;;;;5.53;5.13;;;11.20;99.90;;;;;;4975149;28;20571;-71
2024/02/14 06:01:56;;;;;;;6.10;5.70;;;11.10;99.90;;;;;;4991535;28;20432;-70
2024/02/14 06:04:22;;;;;;;6.60;6.20;;;11.20;99.90;;;;;;4992474;28;20443;-71
2024/02/14 06:06:48;;;;;;;5.07;4.77;;;11.20;99.90;;;;;;4990909;28;20436;-63
2024/02/14 06:09:13;;;;;;;5.30;4.80;;;11.20;99.90;;;;;;4974910;28;20210;-70
2024/02/14 06:11:39;;;;;;;6.40;4.30;;;11.20;99.90;;;;;;4991778;28;20305;-72
2024/02/14 06:14:06;;;;;;;4.60;4.20;;;11.20;99.90;;;;;;4991289;28;20217;-72
2024/02/14 06:16:33;;;;;;;3.93;3.63;;;11.20;99.90;;;;;;4991432;28;20192;-72
2024/02/14 06:18:59;;;;;;;5.13;4.73;;;11.20;99.90;;;;;;4990611;28;20469;-72
2024/02/14 06:21:25;;;;;;;4.50;4.23;;;11.20;99.90;;;;;;4975059;28;20450;-72
2024/02/14 06:23:51;;;;;;;4.87;4.47;;;11.20;99.90;;;;;;4992211;28;20425;-72
2024/02/14 06:26:17;;;;;;;4.50;4.20;;;11.20;99.90;;;;;;4991770;28;20432;-72
2024/02/14 06:28:44;;;;;;;4.20;4.00;;;11.20;99.90;;;;;;4974355;28;20271;-72
2024/02/14 06:31:10;;;;;;;4.10;3.90;;;11.20;99.90;;;;;;4992248;28;20473;-72
2024/02/14 06:33:36;;;;;;;4.17;3.97;;;11.30;99.90;;;;;;4974380;28;20537;-70
2024/02/14 06:36:02;;;;;;;3.80;3.60;;;11.20;99.90;;;;;;4991662;28;20184;-68
2024/02/14 06:38:27;;;;;;;4.70;4.50;;;11.20;99.90;;;;;;4975602;28;20473;-70
2024/02/14 06:40:53;;;;;;;4.17;3.97;;;11.20;99.90;;;;;;4991651;28;20428;-71
2024/02/14 06:43:19;;;;;;;4.40;4.17;;;11.30;99.90;;;;;;4992267;28;20187;-70
2024/02/14 06:45:46;;;;;;;4.37;4.07;;;11.30;99.90;;;;;;4991679;28;20180;-67
2024/02/14 06:48:11;;;;;;;3.93;3.63;;;11.30;99.90;;;;;;4991803;28;20451;-69
2024/02/14 06:50:38;;;;;;;4.00;3.80;;;11.40;99.90;;;;;;4992236;28;20489;-69
2024/02/14 06:53:03;;;;;;;4.77;3.47;;;11.50;99.90;;;;;;4973756;28;20294;-69
2024/02/14 06:55:31;;;;;;;4.00;3.80;;;11.50;99.90;;;;;;4991900;28;20549;-70
2024/02/14 06:57:58;;;;;;;5.67;5.30;;;11.50;99.90;;;;;;4991486;28;20838;-69
2024/02/14 07:00:24;;;;;;;5.47;5.17;;;11.50;99.90;;;;;;4974214;28;20418;-68
2024/02/14 07:02:49;;;;;;;6.73;5.60;;;11.50;99.90;;;;;;4990934;28;20437;-69
2024/02/14 07:05:15;;;;;;;6.03;5.27;;;11.50;99.90;;;;;;4992140;28;20441;-67
2024/02/14 07:07:41;;;;;;;5.17;4.90;;;11.50;99.90;;;;;;4991380;28;20179;-69
2024/02/14 07:10:08;;;;;;;5.20;4.80;;;11.40;99.90;;;;;;4991123;28;20680;-69
2024/02/14 07:12:35;;;;;;;5.00;4.70;;;11.30;99.90;;;;;;4991830;28;21024;-69
2024/02/14 07:15:04;;;;;;;4.40;4.10;;;11.30;99.90;;;;;;4973976;28;20534;-68
2024/02/14 07:17:30;;;;;;;6.30;5.90;;;11.30;99.90;;;;;;4991627;28;20518;-69
2024/02/14 07:19:55;;;;;;;5.20;4.90;;;11.30;99.90;;;;;;4973000;28;20442;-69
2024/02/14 07:22:21;;;;;;;5.30;4.90;;;11.30;99.90;;;;;;4991608;28;20433;-70
2024/02/14 07:24:47;;;;;;;6.30;5.90;;;11.40;99.90;;;;;;4992112;28;20189;-68
2024/02/14 07:27:14;;;;;;;7.33;6.73;;;11.30;99.90;;;;;;4992499;28;20428;-68
2024/02/14 07:29:40;;;;;;;6.83;6.33;;;11.40;99.90;;;;;;4994939;28;20326;-70
2024/02/14 07:32:06;;;;;;;6.53;6.00;;;11.30;99.90;;;;;;4994527;28;20511;-71
2024/02/14 07:34:32;;;;;;;5.77;5.37;;;11.30;99.90;;;;;;4994130;28;20466;-71
2024/02/14 07:36:58;;;;;;;5.27;4.97;;;11.40;99.90;;;;;;4993525;28;20434;-70
2024/02/14 07:39:24;;;;;;;7.87;7.40;;;11.40;99.90;;;;;;4994116;28;20435;-70
2024/02/14 07:41:51;;;;;;;6.60;6.10;;;11.50;99.90;;;;;;4994326;28;20176;-62
2024/02/14 07:44:17;;;;;;;6.90;6.43;;;11.50;99.90;;;;;;4992982;28;20458;-69
2024/02/14 07:46:43;;;;;;;6.83;6.33;;;11.50;99.90;;;;;;4993904;28;20436;-68
2024/02/14 07:49:09;;;;;;;6.63;6.13;;;11.50;99.90;;;;;;4991572;28;20435;-70
2024/02/14 07:51:39;;;;;;;6.50;6.00;;;11.50;99.90;;;;;;4994916;28;20172;-70
2024/02/14 07:54:05;;;;;;;7.80;7.30;;;11.50;99.90;;;;;;4993879;28;20468;-70
2024/02/14 07:56:31;;;;;;;5.00;4.70;;;11.50;99.90;;;;;;4993392;28;20437;-70
2024/02/14 07:58:57;;;;;;;5.30;4.97;;;11.60;99.90;;;;;;4993504;28;20428;-70
2024/02/14 08:01:23;;;;;;;5.30;4.90;;;11.60;99.90;;;;;;4993978;28;20755;-67
2024/02/14 08:03:51;;;;;;;5.43;5.03;;;11.70;99.90;;;;;;4993719;28;20454;-70
2024/02/14 08:06:17;;;;;;;5.47;5.17;;;11.70;99.90;;;;;;4993351;28;20187;-70
2024/02/14 08:08:43;;;;;;;6.73;6.33;;;11.70;99.90;;;;;;4995065;28;20499;-71
2024/02/14 08:11:09;;;;;;;6.27;5.90;;;11.60;99.90;;;;;;4993126;28;20434;-69
2024/02/14 08:13:41;;;;;;;5.33;5.03;;;11.70;99.90;;;;;;4993603;28;20490;-69
2024/02/14 08:16:07;;;;;;;4.50;4.20;;;11.70;99.90;;;;;;4993280;28;20835;-70
2024/02/14 08:18:33;;;;;;;5.93;5.43;;;11.70;99.90;;;;;;4970019;28;20465;-73
2024/02/14 08:20:59;;;;;;;5.53;5.17;;;11.70;99.90;;;;;;4991521;28;20440;-70
2024/02/14 08:23:25;;;;;;;5.97;5.60;;;11.60;99.90;;;;;;4994335;28;20183;-70
2024/02/14 08:25:51;;;;;;;5.17;4.87;;;11.70;99.90;;;;;;4994031;28;20443;-71
2024/02/14 08:28:20;;;;;;;4.67;4.40;;;11.70;99.90;;;;;;4993439;28;20208;-71
2024/02/14 08:30:47;;;;;;;4.37;4.17;;;11.80;99.90;;;;;;4994889;28;20485;-71
2024/02/14 08:33:13;;;;;;;4.00;3.80;;;11.80;99.90;;;;;;4993631;28;20436;-70
2024/02/14 08:35:39;;;;;;;4.93;4.70;;;11.80;99.90;;;;;;4994213;28;20968;-70
2024/02/14 08:38:06;;;;;;;5.20;4.90;;;11.80;99.90;;;;;;4994127;28;20662;-63
2024/02/14 08:40:32;;;;;;;4.37;4.17;;;11.90;99.90;;;;;;4994058;28;20429;-63
2024/02/14 08:42:59;;;;;;;5.00;4.80;;;12.20;99.90;;;;;;4975719;28;20798;-63
2024/02/14 08:45:25;;;;;;;4.60;4.40;;;12.60;99.90;;;;;;4993846;28;20831;-63
2024/02/14 08:47:51;;;;;;;4.33;4.13;;;12.90;99.90;;;;;;4993245;28;20524;-63
2024/02/14 08:50:17;;;;;;;4.53;4.33;;;13.20;99.90;;;;;;4992893;28;20541;-63
2024/02/14 08:52:42;;;;;;;4.60;4.40;;;13.50;99.90;;;;;;4994215;28;20187;-63
2024/02/14 08:55:14;;;;;;;3.57;3.43;;;13.70;99.90;;;;;;4974972;28;20459;-63
2024/02/14 08:57:41;;;;;;;4.20;4.00;;;13.70;99.90;;;;;;4992818;28;20180;-62
2024/02/14 09:00:07;;;;;;;4.50;4.30;;;13.90;99.90;;;;;;4992838;28;20463;-62
2024/02/14 09:02:34;;;;;;;3.50;3.30;;;14.00;99.90;;;;;;4991168;28;20520;-63
2024/02/14 09:05:01;;;;;;;3.40;3.20;;;14.10;99.90;;;;;;4990036;28;20445;-63
2024/02/14 09:07:27;;;;;;;3.20;3.10;;;14.10;99.90;;;;;;4993917;28;20420;-63
2024/02/14 09:09:53;;;;;;;4.17;3.97;;;14.20;99.90;;;;;;4992900;28;20426;-63
2024/02/14 09:12:18;;;;;;;4.77;4.47;;;14.20;99.90;;;;;;4987021;28;20763;-62
2024/02/14 09:14:44;;;;;;;4.33;4.13;;;14.30;99.90;;;;;;4993385;28;20240;-64
2024/02/14 09:17:10;;;;;;;5.07;4.67;;;14.40;99.90;;;;;;4990461;28;20319;-66
2024/02/14 09:19:36;;;;;;;4.43;4.03;;;14.40;99.90;;;;;;4986959;28;20653;-62
2024/02/14 09:22:06;;;;;;;4.30;3.93;;;14.50;99.90;;;;;;4992402;28;20259;-63
2024/02/14 09:24:32;;;;;;;3.30;3.10;;;14.60;99.90;;;;;;4992905;28;20844;-63
2024/02/14 09:26:58;;;;;;;4.17;3.93;;;14.60;99.90;;;;;;4992843;28;20428;-62
2024/02/14 09:29:24;;;;;;;4.10;3.90;;;14.60;99.90;;;;;;4992783;28;20586;-63
2024/02/14 09:31:54;;;;;;;4.20;4.00;;;14.60;99.90;;;;;;4993450;28;20516;-62
2024/02/14 09:34:20;;;;;;;4.80;4.60;;;14.70;99.90;;;;;;4991660;28;20495;-64
2024/02/14 09:36:49;;;;;;;5.00;4.60;;;14.70;99.90;;;;;;4992611;28;20816;-62
2024/02/14 09:39:17;;;;;;;3.93;3.73;;;14.50;99.90;;;;;;4991991;28;20421;-62
2024/02/14 09:41:47;;;;;;;4.47;4.27;;;14.50;99.90;;;;;;4973944;28;20414;-62
2024/02/14 09:44:13;;;;;;;5.30;5.10;;;14.50;99.90;;;;;;4991836;28;20442;-62
2024/02/14 09:46:39;;;;;;;5.73;5.33;;;14.50;99.90;;;;;;4981937;28;20420;-62
2024/02/14 09:49:06;;;;;;;4.83;4.63;;;14.60;99.90;;;;;;4991512;28;20440;-62
2024/02/14 09:51:32;;;;;;;4.07;3.87;;;14.60;99.90;;;;;;4975432;28;20428;-62
2024/02/14 09:54:00;;;;;;;5.53;5.13;;;14.60;99.90;;;;;;4992321;28;20472;-61
2024/02/14 09:56:26;;;;;;;6.37;5.97;;;14.60;99.90;;;;;;4993582;28;20168;-62
2024/02/14 09:58:57;;;;;;;5.17;4.97;;;14.50;99.90;;;;;;4992107;28;20452;-62
2024/02/14 10:01:24;;;;;;;4.70;4.50;;;14.60;99.90;;;;;;4974964;28;20519;-62
2024/02/14 10:03:56;;;;;;;4.50;4.20;;;14.60;99.90;;;;;;4992659;28;20444;-62
2024/02/14 10:06:23;;;;;;;3.10;2.97;;;14.60;99.90;;;;;;4992589;28;20424;-63
2024/02/14 10:08:50;;;;;;;3.07;2.87;;;14.80;99.90;;;;;;4992691;28;20826;-63
2024/02/14 10:11:17;;;;;;;3.57;3.37;;;14.90;99.90;;;;;;4991905;28;20515;-63
2024/02/14 10:13:47;;;;;;;4.27;4.00;;;15.00;99.90;;;;;;4992775;28;20426;-62
2024/02/14 10:16:13;;;;;;;3.90;3.70;;;15.10;99.90;;;;;;4992639;28;20846;-64
2024/02/14 10:18:39;;;;;;;3.20;3.00;;;15.20;99.90;;;;;;4992020;28;20472;-63
2024/02/14 10:21:05;;;;;;;3.50;3.30;;;15.10;99.90;;;;;;4991863;28;20964;-62
2024/02/14 10:23:32;;;;;;;3.10;3.00;;;15.10;99.90;;;;;;4975881;28;20430;-63
2024/02/14 10:25:58;;;;;;;4.30;4.00;;;15.00;99.90;;;;;;4992450;28;20179;-63
2024/02/14 10:28:24;;;;;;;3.20;3.00;;;15.00;99.90;;;;;;4991814;28;20433;-67
2024/02/14 10:30:50;;;;;;;5.10;4.60;;;14.80;99.90;;;;;;4975250;28;20423;-63
2024/02/14 10:33:19;;;;;;;4.30;4.00;;;14.60;99.90;;;;;;4991759;28;20562;-64
2024/02/14 10:35:47;;;;;;;4.67;4.37;;;14.60;99.90;;;;;;4958741;28;20481;-64
2024/02/14 10:38:16;;;;;;;3.20;3.00;;;14.70;99.90;;;;;;4992185;28;20928;-64
2024/02/14 10:40:42;;;;;;;8.67;7.77;;;14.70;99.90;;;;;;4992313;28;20435;-64
2024/02/14 10:43:12;;;;;;;5.03;4.63;;;14.70;99.90;;;;;;4991068;28;20528;-63
2024/02/14 10:45:39;;;;;;;4.37;4.07;;;14.70;99.90;;;;;;4992584;28;20420;-64
2024/02/14 10:48:06;;;;;;;5.27;4.87;;;14.70;99.90;;;;;;4990538;28;20447;-62
2024/02/14 10:50:41;;;;;;;4.17;3.77;;;14.90;99.90;;;;;;4973792;28;20453;-64
2024/02/14 10:53:10;;;;;;;4.50;4.30;;;15.00;99.90;;;;;;4991835;28;20459;-64
2024/02/14 10:55:37;;;;;;;3.00;2.90;;;15.00;99.90;;;;;;4975131;28;21017;-65
2024/02/14 10:58:04;;;;;;;3.60;3.40;;;15.10;99.90;;;;;;4974363;28;20448;-63
2024/02/14 11:00:30;;;;;;;3.40;3.20;;;15.10;99.90;;;;;;4992951;28;20424;-64
2024/02/14 11:02:56;;;;;;;3.30;3.20;;;15.10;99.90;;;;;;4995265;28;20430;-64
2024/02/14 11:05:25;;;;;;;3.57;3.37;;;15.20;99.90;;;;;;4995272;28;20734;-64
2024/02/14 11:07:54;;;;;;;4.77;3.60;;;15.20;99.90;;;;;;4995839;28;20456;-64
2024/02/14 11:10:22;;;;;;;3.23;2.87;;;15.40;99.90;;;;;;4995880;28;20420;-64
2024/02/14 11:12:50;;;;;;;3.13;2.67;;;15.40;99.90;;;;;;4995770;28;20433;-64
2024/02/14 11:15:19;;;;;;;3.80;3.60;;;15.40;99.90;;;;;;4995004;28;20488;-64
2024/02/14 11:17:45;;;;;;;4.73;4.33;;;15.40;99.90;;;;;;4995377;28;20474;-64
2024/02/14 11:20:31;;;;;;;3.43;2.40;;;15.50;99.90;;;;;;4994628;28;20441;-65
2024/02/14 11:23:03;;;;;;;5.40;5.10;;;15.60;99.90;;;;;;4995546;28;20438;-64
2024/02/14 11:25:35;;;;;;;15.07;13.60;;;15.60;99.90;;;;;;4995404;28;20447;-64
2024/02/14 11:28:19;;;;;;;30.40;24.27;;;15.50;99.90;;;;;;4996191;28;20485;-64
2024/02/14 11:30:45;;;;;;;26.73;19.13;;;15.50;99.90;;;;;;4995743;28;20438;-64
2024/02/14 11:33:18;;;;;;;8.33;7.30;;;15.50;99.90;;;;;;4993523;28;20434;-64
2024/02/14 11:35:47;;;;;;;6.53;5.90;;;15.60;99.90;;;;;;4962408;28;20996;-64
2024/02/14 11:38:14;;;;;;;4.87;4.53;;;15.50;99.90;;;;;;4994680;28;20501;-64
2024/02/14 11:40:40;;;;;;;3.27;3.07;;;15.70;99.90;;;;;;4995462;28;20513;-64
2024/02/14 11:43:20;;;;;;;2.90;2.70;;;15.80;99.90;;;;;;4995285;28;20418;-63
2024/02/14 11:45:49;;;;;;;3.73;3.53;;;15.80;99.90;;;;;;4995027;28;20531;-64
2024/02/14 11:48:16;;;;;;;5.77;3.87;;;15.90;99.90;;;;;;4994486;28;20467;-64
2024/02/14 11:50:44;;;;;;;5.63;5.13;;;16.00;99.90;;;;;;4995148;28;20431;-64
2024/02/14 11:53:17;;;;;;;4.60;4.30;;;16.00;99.90;;;;;;4995145;28;20437;-64
2024/02/14 11:55:43;;;;;;;3.10;2.90;;;15.90;99.90;;;;;;4994881;28;20462;-64
2024/02/14 11:58:13;;;;;;;6.00;5.60;;;15.90;99.90;;;;;;4994238;28;20511;-64
2024/02/14 12:00:40;;;;;;;3.87;3.57;;;15.90;99.90;;;;;;4995158;28;20183;-64
2024/02/14 12:03:25;;;;;;;6.53;6.03;;;16.00;99.90;;;;;;4994232;28;20909;-62
2024/02/14 12:05:52;;;;;;;4.37;4.03;;;15.90;99.90;;;;;;4994522;28;20442;-65
2024/02/14 12:08:18;;;;;;;4.17;2.80;;;16.00;99.90;;;;;;4993918;28;20886;-64
2024/02/14 12:10:49;;;;;;;2.57;2.47;;;16.00;99.90;;;;;;4995390;28;20410;-65
2024/02/14 12:13:17;;;;;;;3.00;2.90;;;15.70;99.90;;;;;;4993641;28;20434;-73
2024/02/14 12:15:45;;;;;;;2.37;2.27;;;15.60;99.90;;;;;;4994568;28;20628;-73
2024/02/14 12:18:11;;;;;;;3.33;3.23;;;15.30;99.90;;;;;;4993833;28;20556;-72
2024/02/14 12:20:38;;;;;;;3.40;3.20;;;15.20;99.90;;;;;;4994093;28;20443;-73
2024/02/14 12:23:05;;;;;;;3.53;3.23;;;14.90;99.90;;;;;;4976528;28;20445;-73
2024/02/14 12:25:32;;;;;;;4.80;4.50;;;14.80;99.90;;;;;;4994415;28;20426;-73
2024/02/14 12:27:58;;;;;;;26.63;20.33;;;14.60;99.90;;;;;;4995033;28;20769;-73
2024/02/14 12:30:45;;;;;;;5.03;3.97;;;14.60;99.90;;;;;;4993691;28;20856;-72
2024/02/14 12:33:12;;;;;;;4.20;3.80;;;14.40;99.90;;;;;;4993191;28;20439;-72
2024/02/14 12:35:44;;;;;;;4.50;4.10;;;14.30;99.90;;;;;;4994876;28;20462;-72
2024/02/14 12:38:11;;;;;;;4.87;4.43;;;14.20;99.90;;;;;;4975904;28;20792;-72
2024/02/14 12:40:37;;;;;;;4.47;4.17;;;14.20;99.90;;;;;;4994024;28;20459;-73
2024/02/14 12:43:03;;;;;;;4.43;4.03;;;14.10;99.90;;;;;;4994104;28;20412;-70
2024/02/14 12:45:29;;;;;;;4.80;4.50;;;14.00;99.90;;;;;;4974601;28;20519;-74